Time;durP1;ratioP1;P1;durP2;ratioP2;P2;SDS_P1;SDS_P2;PMS_P1;PMS_P2;Temp;Humidity;BMP_temperature;BMP_pressure;BME280_temperature;BME280_humidity;BME280_pressure;Samples;Min_cycle;Max_cycle;Signal;HPM_P1;HPM_P2
2023/01/14 00:01:17;;;;;;;16.48;2.78;;;6.90;99.90;;;;;;5090026;28;20028;-76
2023/01/14 00:03:44;;;;;;;10.85;1.70;;;6.90;99.90;;;;;;5081747;28;20502;-76
2023/01/14 00:06:15;;;;;;;10.10;1.80;;;6.90;99.90;;;;;;5082412;28;20556;-76
2023/01/14 00:08:44;;;;;;;11.45;1.77;;;6.90;99.90;;;;;;5083330;28;20379;-76
2023/01/14 00:11:12;;;;;;;12.85;2.55;;;6.80;99.90;;;;;;5072735;28;20031;-77
2023/01/14 00:13:40;;;;;;;18.50;2.67;;;6.80;99.90;;;;;;5088775;28;20027;-75
2023/01/14 00:16:07;;;;;;;12.10;2.30;;;6.80;99.90;;;;;;5109914;28;20029;-76
2023/01/14 00:18:34;;;;;;;13.55;2.50;;;6.80;99.90;;;;;;5067930;28;20148;-75
2023/01/14 00:21:14;;;;;;;15.93;2.20;;;6.90;99.90;;;;;;5089565;28;20039;-75
2023/01/14 00:23:41;;;;;;;8.35;1.67;;;6.90;99.90;;;;;;5083957;28;20052;-75
2023/01/14 00:26:12;;;;;;;16.38;2.92;;;6.80;99.90;;;;;;5072714;28;20898;-75
2023/01/14 00:28:39;;;;;;;9.10;1.50;;;6.80;99.90;;;;;;5086625;28;20164;-75
2023/01/14 00:31:13;;;;;;;14.38;2.08;;;6.80;99.90;;;;;;5106220;28;20039;-76
2023/01/14 00:33:40;;;;;;;12.15;2.10;;;6.80;99.90;;;;;;5085107;28;20023;-79
2023/01/14 00:36:08;;;;;;;15.52;2.30;;;6.80;99.90;;;;;;5079680;28;20028;-76
2023/01/14 00:38:35;;;;;;;12.77;2.15;;;6.80;99.90;;;;;;5085378;28;20093;-76
2023/01/14 00:41:20;;;;;;;12.10;1.98;;;6.70;99.90;;;;;;5103529;28;20102;-76
2023/01/14 00:43:51;;;;;;;16.73;2.88;;;6.70;99.90;;;;;;5108610;28;20080;-76
2023/01/14 00:46:19;;;;;;;10.68;2.60;;;6.70;99.90;;;;;;5086434;28;20678;-76
2023/01/14 00:48:45;;;;;;;9.93;1.52;;;6.70;99.90;;;;;;5078567;28;20112;-75
2023/01/14 00:51:12;;;;;;;12.05;1.90;;;6.70;99.90;;;;;;5076874;28;20153;-76
2023/01/14 00:53:39;;;;;;;9.00;1.92;;;6.70;99.90;;;;;;5094481;28;20865;-76
2023/01/14 00:56:06;;;;;;;12.15;1.80;;;6.70;99.90;;;;;;5086309;28;20084;-76
2023/01/14 00:58:32;;;;;;;8.57;1.52;;;6.70;99.90;;;;;;5088086;28;20526;-76
2023/01/14 01:00:58;;;;;;;7.00;1.48;;;6.60;99.90;;;;;;5106166;28;20032;-76
2023/01/14 01:03:24;;;;;;;8.60;2.13;;;6.60;99.90;;;;;;5088349;28;20051;-76
2023/01/14 01:05:51;;;;;;;11.25;1.90;;;6.60;99.90;;;;;;5086600;28;20526;-76
2023/01/14 01:08:18;;;;;;;21.48;2.40;;;6.50;99.90;;;;;;5108230;28;20080;-76
2023/01/14 01:10:45;;;;;;;12.00;1.60;;;6.50;99.90;;;;;;5070620;28;20400;-75
2023/01/14 01:13:13;;;;;;;7.60;1.48;;;6.50;99.90;;;;;;5087761;28;20031;-76
2023/01/14 01:15:40;;;;;;;8.55;1.75;;;6.50;99.90;;;;;;5085680;28;20031;-76
2023/01/14 01:18:06;;;;;;;11.45;1.58;;;6.60;99.90;;;;;;5106974;28;20051;-76
2023/01/14 01:20:33;;;;;;;10.05;1.83;;;6.50;99.90;;;;;;5093871;28;20110;-76
2023/01/14 01:22:59;;;;;;;10.65;1.63;;;6.50;99.90;;;;;;5102509;28;20112;-76
2023/01/14 01:25:25;;;;;;;10.15;1.90;;;6.50;99.90;;;;;;5091923;28;20023;-76
2023/01/14 01:27:52;;;;;;;8.90;2.00;;;6.50;99.90;;;;;;5089572;28;20495;-76
2023/01/14 01:30:18;;;;;;;13.45;1.80;;;6.50;99.90;;;;;;5101984;28;20067;-76
2023/01/14 01:32:44;;;;;;;13.55;1.50;;;6.50;99.90;;;;;;5105040;28;20051;-76
2023/01/14 01:35:10;;;;;;;10.70;1.85;;;6.40;99.90;;;;;;5091136;28;20059;-76
2023/01/14 01:37:36;;;;;;;9.38;1.85;;;6.40;99.90;;;;;;5071146;28;20028;-76
2023/01/14 01:40:02;;;;;;;10.63;1.40;;;6.40;99.90;;;;;;5087249;28;20053;-76
2023/01/14 01:42:33;;;;;;;11.05;1.80;;;6.50;99.90;;;;;;5088375;28;20055;-76
2023/01/14 01:45:45;;;;;;;10.88;1.35;;;6.50;99.90;;;;;;5086591;28;20020;-76
2023/01/14 01:48:22;;;;;;;12.23;1.60;;;6.60;99.90;;;;;;5055629;28;20075;-76
2023/01/14 01:51:12;;;;;;;12.77;1.75;;;6.60;99.90;;;;;;5069975;28;20031;-76
2023/01/14 01:53:42;;;;;;;14.93;1.70;;;6.70;99.90;;;;;;5107517;28;20080;-77
2023/01/14 01:56:11;;;;;;;11.68;1.77;;;6.70;99.90;;;;;;5086587;28;20032;-76
2023/01/14 01:58:37;;;;;;;8.50;1.50;;;6.70;99.90;;;;;;5107264;28;20557;-76
2023/01/14 02:01:03;;;;;;;15.25;2.05;;;6.70;99.90;;;;;;5096038;28;20016;-75
2023/01/14 02:03:41;;;;;;;13.75;2.00;;;6.80;99.90;;;;;;5096114;28;20083;-75
2023/01/14 02:06:07;;;;;;;8.73;1.55;;;6.80;99.90;;;;;;5106935;28;20097;-76
2023/01/14 02:08:35;;;;;;;6.32;1.33;;;6.80;99.90;;;;;;5107446;28;20089;-75
2023/01/14 02:11:25;;;;;;;11.20;1.60;;;6.80;99.90;;;;;;5107188;28;20024;-76
2023/01/14 02:13:59;;;;;;;7.65;1.58;;;6.80;99.90;;;;;;5101546;28;20035;-75
2023/01/14 02:16:45;;;;;;;11.70;1.67;;;6.90;99.90;;;;;;5084097;28;20028;-75
2023/01/14 02:19:39;;;;;;;6.97;1.65;;;6.80;99.90;;;;;;5104009;28;20019;-75
2023/01/14 02:22:32;;;;;;;10.80;1.92;;;6.80;99.90;;;;;;5087837;28;20394;-76
2023/01/14 02:25:31;;;;;;;8.23;1.23;;;6.90;99.90;;;;;;5085586;28;20039;-75
2023/01/14 02:28:50;;;;;;;9.90;1.38;;;6.90;99.90;;;;;;5087372;28;20174;-75
2023/01/14 02:31:22;;;;;;;7.68;1.80;;;6.90;99.90;;;;;;5051681;28;20036;-75
2023/01/14 02:33:51;;;;;;;12.20;2.30;;;6.90;99.90;;;;;;5087771;28;20019;-74
2023/01/14 02:36:43;;;;;;;7.88;1.40;;;6.90;99.90;;;;;;5106316;28;20179;-75
2023/01/14 02:39:34;;;;;;;7.88;2.25;;;6.80;99.90;;;;;;5085615;28;20431;-75
2023/01/14 02:45:28;;;;;;;10.23;1.83;;;6.90;99.90;;;;;;5105143;28;20024;-75
2023/01/14 02:47:54;;;;;;;6.45;1.52;;;6.90;99.90;;;;;;5087549;28;20055;-75
2023/01/14 02:50:20;;;;;;;7.18;1.30;;;6.90;99.90;;;;;;5086792;28;20477;-75
2023/01/14 02:52:46;;;;;;;5.65;1.30;;;6.90;99.90;;;;;;5104605;28;20024;-75
2023/01/14 02:55:33;;;;;;;5.15;1.70;;;6.90;99.90;;;;;;5106103;28;20047;-75
2023/01/14 02:58:17;;;;;;;9.38;1.83;;;6.90;99.90;;;;;;5067245;28;20073;-76
2023/01/14 03:01:25;;;;;;;11.68;1.73;;;6.90;99.90;;;;;;5104062;28;20028;-75
2023/01/14 03:04:10;;;;;;;8.40;1.33;;;6.90;99.90;;;;;;5112657;28;20032;-75
2023/01/14 03:07:01;;;;;;;12.38;1.58;;;6.90;99.90;;;;;;5088060;28;20023;-75
2023/01/14 03:09:48;;;;;;;9.70;1.52;;;6.90;99.90;;;;;;5105264;28;20059;-75
2023/01/14 03:12:17;;;;;;;2.50;0.95;;;6.90;99.90;;;;;;5085983;28;20038;-75
2023/01/14 03:14:50;;;;;;;6.50;1.80;;;6.80;99.90;;;;;;5080623;28;20038;-75
2023/01/14 03:17:25;;;;;;;5.70;1.10;;;6.80;99.90;;;;;;5090258;28;20107;-75
2023/01/14 03:20:03;;;;;;;5.30;1.38;;;6.80;99.90;;;;;;5075911;28;20031;-75
2023/01/14 03:22:31;;;;;;;7.53;1.40;;;6.80;99.90;;;;;;5110425;28;20398;-76
2023/01/14 03:24:58;;;;;;;7.93;1.80;;;6.80;99.90;;;;;;5087771;28;20108;-75
2023/01/14 03:27:30;;;;;;;9.55;1.73;;;6.80;99.90;;;;;;5068571;28;20529;-75
2023/01/14 03:30:03;;;;;;;6.75;1.73;;;6.80;99.90;;;;;;5088274;28;20042;-75
2023/01/14 03:32:43;;;;;;;6.93;1.13;;;6.80;99.90;;;;;;5090272;28;20106;-75
2023/01/14 03:35:15;;;;;;;5.82;1.00;;;6.80;99.90;;;;;;5089109;28;20028;-75
2023/01/14 03:37:51;;;;;;;5.55;1.35;;;6.90;99.90;;;;;;5074716;27;20491;-75
2023/01/14 03:40:19;;;;;;;7.00;1.30;;;6.90;99.90;;;;;;5107074;28;20042;-75
2023/01/14 03:42:53;;;;;;;11.57;1.90;;;6.80;99.90;;;;;;5110357;28;20020;-76
2023/01/14 03:45:28;;;;;;;6.22;1.50;;;6.90;99.90;;;;;;5087539;28;20031;-75
2023/01/14 03:47:54;;;;;;;9.93;1.73;;;6.80;99.90;;;;;;5072236;28;20108;-75
2023/01/14 03:50:25;;;;;;;4.93;1.35;;;6.80;99.90;;;;;;5091205;28;20476;-75
2023/01/14 03:53:11;;;;;;;8.10;1.27;;;6.80;99.90;;;;;;5107498;28;20031;-75
2023/01/14 03:55:50;;;;;;;6.80;1.23;;;6.80;99.90;;;;;;5072441;28;20032;-75
2023/01/14 03:59:01;;;;;;;8.63;1.35;;;6.80;99.90;;;;;;5090709;28;20069;-75
2023/01/14 04:01:46;;;;;;;5.78;1.27;;;6.80;99.90;;;;;;5076552;28;20035;-75
2023/01/14 04:04:13;;;;;;;7.68;1.38;;;6.80;99.90;;;;;;5086481;28;20051;-76
2023/01/14 04:06:40;;;;;;;5.63;1.27;;;6.80;99.90;;;;;;5088635;28;20433;-76
2023/01/14 04:09:07;;;;;;;6.50;1.08;;;6.90;99.90;;;;;;5089099;28;20024;-76
2023/01/14 04:11:33;;;;;;;5.38;1.00;;;6.80;99.90;;;;;;5088355;28;20162;-76
2023/01/14 04:16:43;;;;;;;7.15;1.15;;;6.90;99.90;;;;;;5107064;28;20086;-76
2023/01/14 04:19:08;;;;;;;5.82;1.15;;;6.90;99.90;;;;;;5092351;28;20023;-76
2023/01/14 04:21:34;;;;;;;9.85;1.92;;;6.90;99.90;;;;;;5091431;28;20038;-76
2023/01/14 04:24:00;;;;;;;5.38;0.90;;;6.90;99.90;;;;;;5088440;28;20024;-77
2023/01/14 04:26:28;;;;;;;2.85;0.90;;;6.90;99.90;;;;;;5086737;28;20031;-76
2023/01/14 04:28:54;;;;;;;5.55;1.05;;;6.90;99.90;;;;;;5092426;28;20514;-76
2023/01/14 04:31:20;;;;;;;6.47;1.45;;;6.90;99.90;;;;;;5105421;28;20035;-76
2023/01/14 04:33:46;;;;;;;5.63;0.93;;;6.90;99.90;;;;;;5073763;28;20028;-76
2023/01/14 04:36:11;;;;;;;4.32;1.00;;;6.90;99.90;;;;;;5090400;28;20487;-77
2023/01/14 04:38:37;;;;;;;5.07;1.00;;;6.80;99.90;;;;;;5089545;28;20050;-76
2023/01/14 04:41:03;;;;;;;4.70;1.48;;;6.80;99.90;;;;;;5104928;28;20062;-76
2023/01/14 04:43:29;;;;;;;6.25;1.20;;;6.80;99.90;;;;;;5081586;28;20016;-75
2023/01/14 04:45:55;;;;;;;11.25;1.83;;;6.80;99.90;;;;;;5093327;28;20031;-76
2023/01/14 04:48:22;;;;;;;5.05;1.02;;;6.70;99.90;;;;;;5108137;28;20106;-75
2023/01/14 04:50:50;;;;;;;6.00;1.27;;;6.70;99.90;;;;;;5089857;28;20106;-76
2023/01/14 04:53:23;;;;;;;3.33;1.20;;;6.70;99.90;;;;;;5105346;28;20441;-76
2023/01/14 04:55:55;;;;;;;8.15;1.15;;;6.60;99.90;;;;;;5086026;28;20024;-76
2023/01/14 04:58:21;;;;;;;9.60;1.73;;;6.70;99.90;;;;;;5072767;28;20490;-76
2023/01/14 05:00:46;;;;;;;9.85;2.05;;;6.60;99.90;;;;;;5070631;28;20051;-76
2023/01/14 05:03:15;;;;;;;8.77;2.10;;;6.70;99.90;;;;;;5103877;28;20367;-76
2023/01/14 05:05:41;;;;;;;10.57;2.20;;;6.60;99.90;;;;;;5088350;28;20031;-76
2023/01/14 05:08:09;;;;;;;6.18;2.03;;;6.70;99.90;;;;;;5104763;28;20031;-76
2023/01/14 05:10:35;;;;;;;10.18;2.28;;;6.70;99.90;;;;;;5092910;28;20027;-76
2023/01/14 05:13:02;;;;;;;10.57;2.42;;;6.70;99.90;;;;;;5086101;28;20020;-75
2023/01/14 05:15:37;;;;;;;7.57;2.90;;;6.70;99.90;;;;;;5068476;28;20039;-75
2023/01/14 05:18:04;;;;;;;12.15;3.92;;;6.70;99.90;;;;;;5083811;28;20072;-76
2023/01/14 05:20:29;;;;;;;13.05;4.70;;;6.70;99.90;;;;;;5084628;28;20036;-76
2023/01/14 05:23:04;;;;;;;16.95;5.18;;;6.70;99.90;;;;;;5083614;28;20076;-74
2023/01/14 05:25:31;;;;;;;14.82;6.18;;;6.70;99.90;;;;;;5086384;28;20034;-75
2023/01/14 05:28:02;;;;;;;22.00;6.53;;;6.70;99.90;;;;;;5069841;28;20024;-75
2023/01/14 05:30:28;;;;;;;16.45;6.35;;;6.70;99.90;;;;;;5068502;27;20027;-75
2023/01/14 05:32:55;;;;;;;19.13;6.45;;;6.70;99.90;;;;;;5069803;28;20062;-76
2023/01/14 05:35:21;;;;;;;21.25;5.88;;;6.70;99.90;;;;;;5068639;28;20457;-76
2023/01/14 05:37:46;;;;;;;13.07;5.95;;;6.70;99.90;;;;;;5084592;28;20394;-74
2023/01/14 05:40:12;;;;;;;22.50;6.63;;;6.70;99.90;;;;;;5080724;28;20036;-75
2023/01/14 05:45:38;;;;;;;20.10;6.25;;;6.70;99.90;;;;;;5104843;28;20019;-75
2023/01/14 05:48:04;;;;;;;10.65;6.60;;;6.70;99.90;;;;;;5090081;28;20059;-75
2023/01/14 05:50:32;;;;;;;20.52;6.88;;;6.70;99.90;;;;;;5087754;28;20031;-75
2023/01/14 05:52:58;;;;;;;17.80;5.97;;;6.70;99.90;;;;;;5070843;28;20047;-75
2023/01/14 05:55:24;;;;;;;21.35;6.70;;;6.70;99.90;;;;;;5078386;28;20027;-76
2023/01/14 05:57:49;;;;;;;22.08;5.70;;;6.80;99.90;;;;;;5095298;28;20033;-77
2023/01/14 06:08:29;;;;;;;24.70;6.70;;;6.70;99.90;;;;;;5087765;28;20058;-76
2023/01/14 06:10:55;;;;;;;25.85;6.30;;;6.70;99.90;;;;;;5086608;28;20077;-76
2023/01/14 06:13:22;;;;;;;15.70;6.28;;;6.70;99.90;;;;;;5088021;28;20020;-76
2023/01/14 06:15:51;;;;;;;19.38;5.65;;;6.70;99.90;;;;;;5086789;28;20015;-77
2023/01/14 06:18:22;;;;;;;25.02;6.93;;;6.70;99.90;;;;;;5089598;28;20091;-77
2023/01/14 06:20:53;;;;;;;17.85;5.90;;;6.70;99.90;;;;;;5068837;28;20024;-77
2023/01/14 06:23:20;;;;;;;19.90;6.60;;;6.70;99.90;;;;;;5088845;28;20084;-76
2023/01/14 06:25:48;;;;;;;21.70;5.68;;;6.70;99.90;;;;;;5087820;28;20024;-76
2023/01/14 06:28:15;;;;;;;22.40;4.70;;;6.80;99.90;;;;;;5087008;28;20072;-76
2023/01/14 06:30:41;;;;;;;22.58;5.78;;;6.80;99.90;;;;;;5085213;28;20024;-76
2023/01/14 06:33:07;;;;;;;14.45;5.53;;;6.80;99.90;;;;;;5087555;28;20028;-76
2023/01/14 06:35:41;;;;;;;20.60;4.53;;;6.80;99.90;;;;;;5086172;28;20020;-76
2023/01/14 06:38:07;;;;;;;17.95;4.50;;;6.80;99.90;;;;;;5088783;28;20039;-75
2023/01/14 06:40:33;;;;;;;25.77;4.50;;;6.70;99.90;;;;;;5084813;28;20027;-77
2023/01/14 06:42:58;;;;;;;13.90;3.92;;;6.70;99.90;;;;;;5086443;28;20113;-76
2023/01/14 06:45:24;;;;;;;21.25;3.85;;;6.80;99.90;;;;;;5108161;28;20031;-75
2023/01/14 06:47:51;;;;;;;17.25;3.58;;;6.70;99.90;;;;;;5101935;28;20031;-75
2023/01/14 06:50:19;;;;;;;24.90;4.38;;;6.70;99.90;;;;;;5086536;28;23828;-75
2023/01/14 06:52:45;;;;;;;19.80;3.70;;;6.70;99.90;;;;;;5101885;28;20352;-76
2023/01/14 06:55:11;;;;;;;10.85;3.30;;;6.70;99.90;;;;;;5067595;28;20039;-76
2023/01/14 06:57:37;;;;;;;18.70;4.10;;;6.70;99.90;;;;;;5105747;28;20036;-76
2023/01/14 07:00:04;;;;;;;14.45;3.28;;;6.70;99.90;;;;;;5085850;28;20039;-75
2023/01/14 07:02:29;;;;;;;16.58;3.13;;;6.70;99.90;;;;;;5067363;28;20024;-76
2023/01/14 07:04:55;;;;;;;17.67;3.85;;;6.70;99.90;;;;;;5087730;28;20063;-76
2023/01/14 07:07:21;;;;;;;15.27;3.05;;;6.70;99.90;;;;;;5066915;28;20027;-77
2023/01/14 07:09:46;;;;;;;19.52;3.78;;;6.70;99.90;;;;;;5106551;28;20638;-76
2023/01/14 07:12:12;;;;;;;11.52;2.78;;;6.70;99.90;;;;;;5104486;28;20088;-75
2023/01/14 07:14:38;;;;;;;16.05;3.20;;;6.90;99.90;;;;;;5088775;28;20062;-75
2023/01/14 07:17:04;;;;;;;18.35;4.68;;;6.80;99.90;;;;;;5068414;28;20028;-76
2023/01/14 07:19:30;;;;;;;25.58;3.80;;;6.70;99.90;;;;;;5085236;28;20154;-76
2023/01/14 07:21:55;;;;;;;14.25;3.42;;;6.60;99.90;;;;;;5108470;28;20062;-76
2023/01/14 07:24:21;;;;;;;15.98;3.22;;;6.50;99.90;;;;;;5106202;28;20042;-75
2023/01/14 07:26:47;;;;;;;23.20;4.70;;;6.50;99.90;;;;;;5102089;28;20020;-76
2023/01/14 07:29:14;;;;;;;18.05;3.90;;;6.40;99.90;;;;;;5082092;28;20035;-75
2023/01/14 07:31:40;;;;;;;23.60;4.45;;;6.40;99.90;;;;;;5068039;28;20019;-76
2023/01/14 07:34:06;;;;;;;17.30;3.63;;;6.40;99.90;;;;;;5087495;28;20038;-76
2023/01/14 07:36:32;;;;;;;18.92;4.20;;;6.40;99.90;;;;;;5086623;28;20020;-76
2023/01/14 07:38:58;;;;;;;17.50;3.88;;;6.40;99.90;;;;;;5113614;28;20481;-76
2023/01/14 07:41:23;;;;;;;26.17;5.47;;;6.40;99.90;;;;;;5085880;28;20034;-75
2023/01/14 07:43:49;;;;;;;29.70;5.30;;;6.30;99.90;;;;;;5104231;28;20031;-75
2023/01/14 07:46:16;;;;;;;26.08;5.57;;;6.20;99.90;;;;;;5062064;28;20028;-76
2023/01/14 07:48:44;;;;;;;22.58;5.63;;;6.30;99.90;;;;;;5085399;28;20032;-75
2023/01/14 07:51:11;;;;;;;17.23;4.50;;;6.20;99.90;;;;;;5069801;28;20038;-75
2023/01/14 07:53:37;;;;;;;30.52;5.05;;;6.20;99.90;;;;;;5087207;28;20055;-75
2023/01/14 07:56:05;;;;;;;26.38;5.82;;;6.20;99.90;;;;;;5069998;28;20110;-75
2023/01/14 07:58:31;;;;;;;19.88;5.20;;;6.20;99.90;;;;;;5087575;28;20032;-75
2023/01/14 08:00:57;;;;;;;28.60;5.22;;;6.20;99.90;;;;;;5090694;28;20462;-75
2023/01/14 08:03:24;;;;;;;30.25;5.40;;;6.10;99.90;;;;;;5105722;27;20054;-75
2023/01/14 08:05:51;;;;;;;19.02;5.25;;;6.10;99.90;;;;;;5095147;28;20032;-76
2023/01/14 08:08:17;;;;;;;22.70;5.75;;;6.20;99.90;;;;;;5089973;28;20111;-74
2023/01/14 08:10:43;;;;;;;19.52;4.47;;;6.20;99.90;;;;;;5087750;28;20059;-75
2023/01/14 08:13:13;;;;;;;30.67;5.30;;;6.20;99.90;;;;;;5091017;28;20023;-75
2023/01/14 08:15:39;;;;;;;27.17;5.60;;;6.20;99.90;;;;;;5087780;28;20082;-74
2023/01/14 08:18:04;;;;;;;26.60;5.68;;;6.20;99.90;;;;;;5054068;28;20499;-76
2023/01/14 08:20:30;;;;;;;38.05;6.15;;;6.10;99.90;;;;;;5070812;28;20038;-77
2023/01/14 08:23:00;;;;;;;32.50;5.53;;;6.10;99.90;;;;;;5065385;28;20201;-76
2023/01/14 08:25:27;;;;;;;34.42;6.28;;;6.20;99.90;;;;;;5064535;28;20150;-76
2023/01/14 08:27:53;;;;;;;27.00;5.57;;;6.20;99.90;;;;;;5082906;28;20035;-76
2023/01/14 08:30:19;;;;;;;27.92;6.32;;;6.20;99.90;;;;;;5059392;28;20125;-77
2023/01/14 08:32:47;;;;;;;19.63;5.90;;;6.20;99.90;;;;;;5063764;28;20043;-77
2023/01/14 08:35:12;;;;;;;27.85;5.57;;;6.20;99.90;;;;;;5074997;28;20032;-76
2023/01/14 08:37:40;;;;;;;36.80;6.53;;;6.20;99.90;;;;;;5060123;28;21039;-76
2023/01/14 08:40:06;;;;;;;25.30;5.25;;;6.20;99.90;;;;;;5056107;28;20166;-76
2023/01/14 08:42:32;;;;;;;22.00;4.97;;;6.20;99.90;;;;;;5058140;28;20074;-76
2023/01/14 08:44:58;;;;;;;35.35;5.78;;;6.20;99.90;;;;;;5074180;27;21805;-76
2023/01/14 08:47:23;;;;;;;29.50;6.03;;;6.20;99.90;;;;;;5055179;28;20224;-76
2023/01/14 08:49:49;;;;;;;33.00;6.68;;;6.20;99.90;;;;;;5058678;28;20043;-76
2023/01/14 08:52:15;;;;;;;28.33;6.20;;;6.20;99.90;;;;;;5057454;28;20031;-76
2023/01/14 08:54:40;;;;;;;26.55;6.85;;;6.20;99.90;;;;;;5058794;28;20034;-76
2023/01/14 08:57:06;;;;;;;25.17;6.32;;;6.20;99.90;;;;;;5058040;28;20036;-76
2023/01/14 08:59:32;;;;;;;36.83;8.25;;;6.30;99.90;;;;;;5055612;28;20160;-77
2023/01/14 09:01:58;;;;;;;26.60;5.25;;;6.30;99.90;;;;;;5060430;28;20034;-75
2023/01/14 09:04:25;;;;;;;18.13;5.78;;;6.30;99.90;;;;;;5074932;27;20024;-76
2023/01/14 09:17:58;;;;;;;30.77;6.47;;;6.40;99.90;;;;;;5103595;28;20034;-75
2023/01/14 09:20:29;;;;;;;30.42;6.45;;;6.40;99.90;;;;;;5087083;28;20027;-75
2023/01/14 09:22:54;;;;;;;;;;;6.40;99.90;;;;;;5087272;28;20483;-76
2023/01/14 09:25:21;;;;;;;28.58;5.85;;;6.40;99.90;;;;;;5063914;28;19938;-76
2023/01/14 09:27:47;;;;;;;20.73;5.55;;;6.40;99.90;;;;;;5082561;28;20063;-76
2023/01/14 09:30:13;;;;;;;23.20;6.47;;;6.50;99.90;;;;;;5089716;28;20051;-75
2023/01/14 09:32:40;;;;;;;26.50;7.05;;;6.50;99.90;;;;;;5088523;28;20032;-76
2023/01/14 09:35:07;;;;;;;32.15;7.10;;;6.50;99.90;;;;;;5074940;28;20031;-76
2023/01/14 09:37:33;;;;;;;27.38;7.13;;;6.50;99.90;;;;;;5097374;28;20024;-76
2023/01/14 09:40:00;;;;;;;29.77;7.07;;;6.50;99.90;;;;;;5082541;28;20032;-75
2023/01/14 09:42:40;;;;;;;27.38;7.43;;;6.50;99.90;;;;;;5071693;28;20035;-74
2023/01/14 09:45:26;;;;;;;29.67;6.73;;;6.60;99.90;;;;;;5117396;28;20023;-75
2023/01/14 09:47:54;;;;;;;38.42;7.85;;;6.60;99.90;;;;;;5075657;28;20282;-75
2023/01/14 09:50:35;;;;;;;22.08;6.22;;;6.60;99.90;;;;;;5089962;28;20145;-76
2023/01/14 09:53:01;;;;;;;;;;;6.60;99.90;;;;;;5087585;28;20047;-76
2023/01/14 09:55:42;;;;;;;26.85;7.63;;;6.60;99.90;;;;;;5058575;28;19912;-76
2023/01/14 09:58:32;;;;;;;25.58;5.95;;;6.60;99.90;;;;;;5085677;28;20039;-76
2023/01/14 10:01:06;;;;;;;33.33;7.30;;;6.60;99.90;;;;;;5097898;28;20047;-76
2023/01/14 10:04:04;;;;;;;32.35;7.57;;;6.60;99.90;;;;;;5070930;28;20138;-77
2023/01/14 10:06:30;;;;;;;26.63;6.72;;;6.60;99.90;;;;;;5089418;28;20399;-77
2023/01/14 10:09:03;;;;;;;26.83;7.68;;;6.60;99.90;;;;;;5069170;28;20028;-77
2023/01/14 10:11:32;;;;;;;30.55;7.55;;;6.70;99.90;;;;;;5081022;28;20031;-76
2023/01/14 10:14:11;;;;;;;35.45;8.57;;;6.70;99.90;;;;;;5071002;28;20058;-76
2023/01/14 10:16:42;;;;;;;28.58;7.28;;;6.70;99.90;;;;;;5085477;28;20102;-76
2023/01/14 10:19:20;;;;;;;38.15;7.88;;;6.70;99.90;;;;;;5079055;28;20550;-76
2023/01/14 10:21:48;;;;;;;28.40;6.65;;;6.70;99.90;;;;;;5085512;28;20051;-77
2023/01/14 10:24:16;;;;;;;28.13;7.47;;;6.70;99.90;;;;;;5106283;28;20023;-76
2023/01/14 10:26:44;;;;;;;36.60;6.97;;;6.80;99.90;;;;;;5070885;28;20020;-76
2023/01/14 10:29:16;;;;;;;26.13;6.90;;;6.80;99.90;;;;;;5084945;28;20039;-77
2023/01/14 10:31:48;;;;;;;28.27;7.47;;;6.80;99.90;;;;;;5082516;28;20108;-77
2023/01/14 10:34:21;;;;;;;29.38;7.47;;;6.80;99.90;;;;;;5082002;28;20043;-77
2023/01/14 10:36:47;;;;;;;29.10;6.88;;;6.80;99.90;;;;;;5081593;28;20088;-77
2023/01/14 10:39:13;;;;;;;25.25;6.18;;;6.80;99.90;;;;;;5090001;28;20110;-77
2023/01/14 10:41:51;;;;;;;20.33;6.07;;;6.90;99.90;;;;;;5098573;28;20019;-76
2023/01/14 10:44:29;;;;;;;23.10;5.70;;;6.90;99.90;;;;;;5074349;28;20491;-76
2023/01/14 10:47:08;;;;;;;34.88;7.30;;;6.90;99.90;;;;;;5074203;28;20032;-76
2023/01/14 10:49:39;;;;;;;28.98;5.55;;;6.90;99.90;;;;;;5068108;28;20043;-77
2023/01/14 10:52:20;;;;;;;34.00;6.55;;;6.90;99.90;;;;;;5067090;28;20031;-77
2023/01/14 10:55:11;;;;;;;29.17;6.18;;;7.00;99.90;;;;;;5084582;28;20062;-77
2023/01/14 10:57:51;;;;;;;28.92;5.07;;;6.90;99.90;;;;;;5072904;28;20498;-77
2023/01/14 11:00:25;;;;;;;23.05;5.78;;;6.90;99.90;;;;;;5087332;28;20036;-77
2023/01/14 11:02:51;;;;;;;25.52;5.28;;;7.00;99.90;;;;;;5091257;28;20008;-77
2023/01/14 11:05:31;;;;;;;26.73;5.05;;;7.00;99.90;;;;;;5085841;28;20038;-77
2023/01/14 11:07:59;;;;;;;23.00;4.50;;;7.00;99.90;;;;;;5084366;28;20077;-78
2023/01/14 11:10:29;;;;;;;21.55;4.82;;;7.00;99.90;;;;;;5064597;28;20024;-77
2023/01/14 11:13:25;;;;;;;27.33;4.85;;;7.00;99.90;;;;;;5080707;28;20744;-77
2023/01/14 11:15:51;;;;;;;22.42;4.10;;;7.00;99.90;;;;;;5087049;28;20032;-75
2023/01/14 11:18:19;;;;;;;23.92;4.88;;;7.10;99.90;;;;;;5108807;28;20023;-77
2023/01/14 11:21:03;;;;;;;25.10;4.32;;;7.10;99.90;;;;;;5077524;28;20037;-77
2023/01/14 11:23:32;;;;;;;18.02;4.28;;;7.10;99.90;;;;;;5105655;28;20020;-76
2023/01/14 11:26:03;;;;;;;24.85;4.13;;;7.10;99.90;;;;;;5088249;28;20031;-79
2023/01/14 11:28:29;;;;;;;25.67;4.25;;;7.10;99.90;;;;;;5090782;28;20085;-76
2023/01/14 11:30:57;;;;;;;20.45;3.60;;;7.10;99.90;;;;;;5084583;28;20643;-75
2023/01/14 11:33:25;;;;;;;19.67;3.83;;;7.10;99.90;;;;;;5102348;28;20102;-76
2023/01/14 11:35:55;;;;;;;18.33;4.45;;;7.10;99.90;;;;;;5081535;28;20495;-76
2023/01/14 11:38:21;;;;;;;23.58;4.45;;;7.10;99.90;;;;;;5103567;28;20616;-75
2023/01/14 11:43:56;;;;;;;22.33;3.75;;;7.20;99.90;;;;;;5079569;28;20060;-76
2023/01/14 11:46:25;;;;;;;20.30;3.83;;;7.20;99.90;;;;;;5080627;28;20111;-78
2023/01/14 11:49:13;;;;;;;24.05;4.20;;;7.10;99.90;;;;;;5093735;28;20414;-78
2023/01/14 11:51:40;;;;;;;20.80;3.45;;;7.10;99.90;;;;;;5090217;28;20493;-80
2023/01/14 11:54:19;;;;;;;16.08;3.17;;;7.10;99.90;;;;;;5073489;28;20031;-77
2023/01/14 11:56:46;;;;;;;15.85;4.28;;;7.10;99.90;;;;;;5090701;28;20402;-76
2023/01/14 11:59:29;;;;;;;20.50;3.03;;;7.00;99.90;;;;;;5084379;28;20027;-78
2023/01/14 12:02:34;;;;;;;15.60;2.85;;;7.00;99.90;;;;;;5110029;28;20053;-76
2023/01/14 12:05:16;;;;;;;20.77;3.92;;;7.10;99.90;;;;;;5105365;28;20151;-78
2023/01/14 12:07:47;;;;;;;14.60;3.17;;;7.00;99.90;;;;;;5071823;28;20051;-77
2023/01/14 12:10:59;;;;;;;18.48;3.08;;;7.00;99.90;;;;;;5066623;28;20218;-75
2023/01/14 12:19:34;;;;;;;17.27;3.63;;;6.90;99.90;;;;;;5098378;28;20746;-76
2023/01/14 12:22:18;;;;;;;11.88;3.60;;;6.80;99.90;;;;;;5085806;28;20036;-76
2023/01/14 12:24:53;;;;;;;13.18;2.97;;;6.80;99.90;;;;;;5090162;28;20408;-79
2023/01/14 12:27:44;;;;;;;15.55;2.95;;;6.80;99.90;;;;;;5070923;28;20056;-77
2023/01/14 12:30:25;;;;;;;15.25;3.72;;;6.70;99.90;;;;;;5086545;28;20051;-77
2023/01/14 12:33:03;;;;;;;18.95;3.30;;;6.70;99.90;;;;;;5105056;28;20072;-76
2023/01/14 12:35:36;;;;;;;15.48;3.33;;;6.70;99.90;;;;;;5084975;28;20027;-76
2023/01/14 12:45:41;;;;;;;20.50;3.38;;;6.70;99.90;;;;;;5085808;28;20032;-77
2023/01/14 12:46:28;;;;;;;18.70;3.42;;;6.60;99.90;;;;;;5105849;28;20143;-77
2023/01/14 12:48:58;;;;;;;12.18;3.67;;;6.60;99.90;;;;;;5106348;28;20538;-78
2023/01/14 12:51:28;;;;;;;19.60;3.35;;;6.60;99.90;;;;;;5071430;28;20131;-78
2023/01/14 12:53:58;;;;;;;11.05;2.75;;;6.50;99.90;;;;;;5085904;28;20032;-77
2023/01/14 12:56:52;;;;;;;15.02;3.10;;;6.50;99.90;;;;;;5090943;28;20067;-77
2023/01/14 12:59:28;;;;;;;15.10;3.17;;;6.60;99.90;;;;;;5007805;28;20092;-78
2023/01/14 13:02:00;;;;;;;15.60;3.10;;;6.50;99.90;;;;;;5004302;28;20497;-77
2023/01/14 13:04:30;;;;;;;12.52;3.05;;;6.50;99.90;;;;;;5024248;28;20617;-77
2023/01/14 13:07:03;;;;;;;13.38;2.72;;;6.50;99.90;;;;;;5010818;28;20026;-77
2023/01/14 13:09:34;;;;;;;9.32;3.30;;;6.50;99.90;;;;;;5033607;28;20049;-77
2023/01/14 13:12:01;;;;;;;15.93;2.75;;;6.50;99.90;;;;;;5030107;28;20033;-77
2023/01/14 13:14:37;;;;;;;15.60;2.60;;;6.50;99.90;;;;;;5008083;28;20036;-77
2023/01/14 13:17:31;;;;;;;13.38;2.63;;;6.50;99.90;;;;;;4995328;28;20033;-77
2023/01/14 13:19:58;;;;;;;10.57;2.63;;;6.50;99.90;;;;;;5014419;28;20480;-77
2023/01/14 13:22:49;;;;;;;18.08;2.72;;;6.50;99.90;;;;;;5006454;28;20113;-77
2023/01/14 13:25:33;;;;;;;;;;;6.50;99.90;;;;;;4994843;28;20128;-79
2023/01/14 13:28:01;;;;;;;15.27;2.90;;;6.50;99.90;;;;;;5022330;28;20342;-77
2023/01/14 13:30:27;;;;;;;15.30;3.25;;;6.50;99.90;;;;;;5018104;28;20588;-76
2023/01/14 13:32:59;;;;;;;13.13;2.95;;;6.50;99.90;;;;;;4989010;28;20074;-76
2023/01/14 13:35:29;;;;;;;13.15;2.72;;;6.50;99.90;;;;;;5031441;28;20041;-74
2023/01/14 13:37:57;;;;;;;11.50;2.35;;;6.50;99.90;;;;;;5081269;28;20023;-74
2023/01/14 13:40:36;;;;;;;8.43;3.03;;;6.50;99.90;;;;;;5084618;28;20032;-74
2023/01/14 13:43:05;;;;;;;12.00;2.70;;;6.50;99.90;;;;;;5071896;28;20028;-75
2023/01/14 13:45:34;;;;;;;11.65;3.03;;;6.50;99.90;;;;;;5098158;28;20082;-75
2023/01/14 13:48:16;;;;;;;13.35;2.90;;;6.50;99.90;;;;;;5081392;28;20050;-76
2023/01/14 13:50:49;;;;;;;7.95;2.00;;;6.50;99.90;;;;;;5083719;28;20581;-76
2023/01/14 13:53:17;;;;;;;16.45;2.88;;;6.50;99.90;;;;;;5087610;28;20556;-76
2023/01/14 13:55:58;;;;;;;12.82;3.08;;;6.50;99.90;;;;;;5089113;28;20035;-77